createdAt,value
2023-05-14T00:02:14.481Z,23.70
2023-05-14T00:04:41.742Z,23.95
2023-05-14T00:07:08.940Z,24.45
2023-05-14T00:09:36.149Z,22.65
2023-05-14T00:12:03.510Z,24.90
2023-05-14T00:14:30.617Z,25.23
2023-05-14T00:16:58.380Z,23.70
2023-05-14T00:19:26.197Z,24.50
2023-05-14T00:21:53.362Z,26.63
2023-05-14T00:24:20.399Z,26.30
2023-05-14T00:26:47.640Z,24.13
2023-05-14T00:29:14.721Z,26.33
2023-05-14T00:31:41.910Z,25.45
2023-05-14T00:34:09.088Z,24.92
2023-05-14T00:36:36.187Z,23.88
2023-05-14T00:39:03.807Z,24.37
2023-05-14T00:41:30.960Z,26.25
2023-05-14T00:43:57.999Z,24.27
2023-05-14T00:46:25.620Z,25.45
2023-05-14T00:48:52.786Z,25.25
2023-05-14T00:51:20.624Z,23.77
2023-05-14T00:53:48.386Z,25.90
2023-05-14T00:56:16.713Z,23.40
2023-05-14T00:58:43.829Z,24.00
2023-05-14T01:01:12.277Z,26.35
2023-05-14T01:03:39.655Z,24.67
2023-05-14T01:06:24.599Z,25.10
2023-05-14T01:09:30.128Z,23.73
2023-05-14T01:12:34.778Z,25.02
2023-05-14T01:15:09.247Z,23.23
2023-05-14T01:17:53.902Z,24.77
2023-05-14T01:20:22.323Z,22.60
2023-05-14T01:22:49.611Z,24.67
2023-05-14T01:25:16.985Z,24.52
2023-05-14T01:28:11.226Z,23.70
2023-05-14T01:31:05.076Z,23.33
2023-05-14T01:33:34.384Z,24.70
2023-05-14T01:36:02.652Z,24.50
2023-05-14T01:38:31.762Z,24.38
2023-05-14T01:41:00.155Z,25.25
2023-05-14T01:43:27.879Z,24.67
2023-05-14T01:45:55.719Z,23.55
2023-05-14T01:48:22.933Z,24.48
2023-05-14T01:50:50.051Z,23.77
2023-05-14T01:53:17.116Z,21.85
2023-05-14T01:55:44.242Z,22.77
2023-05-14T01:58:11.360Z,22.48
2023-05-14T02:00:38.488Z,23.13
2023-05-14T02:03:05.707Z,21.35
2023-05-14T02:05:33.084Z,23.10
2023-05-14T02:08:00.168Z,23.53
2023-05-14T02:10:27.325Z,22.70
2023-05-14T02:12:56.299Z,22.27
2023-05-14T02:15:23.547Z,24.10
2023-05-14T02:17:50.811Z,24.00
2023-05-14T02:20:18.095Z,23.07
2023-05-14T02:22:46.466Z,22.77
2023-05-14T02:25:13.600Z,24.48
2023-05-14T02:27:40.736Z,23.65
2023-05-14T02:30:09.278Z,23.88
2023-05-14T02:32:37.061Z,22.53
2023-05-14T02:35:04.546Z,22.80
2023-05-14T02:37:31.661Z,25.20
2023-05-14T02:39:58.819Z,23.85
2023-05-14T02:42:26.120Z,23.25
2023-05-14T02:44:53.208Z,22.77
2023-05-14T02:47:20.402Z,23.50
2023-05-14T02:49:47.700Z,24.70
2023-05-14T02:52:14.821Z,24.02
2023-05-14T02:54:42.061Z,23.10
2023-05-14T02:57:09.281Z,23.67
2023-05-14T02:59:36.581Z,26.50
2023-05-14T03:02:04.344Z,25.77
2023-05-14T03:04:32.002Z,22.98
2023-05-14T03:06:59.372Z,23.42
2023-05-14T03:09:26.584Z,23.27
2023-05-14T03:11:55.192Z,22.50
2023-05-14T03:14:22.636Z,22.50
2023-05-14T03:16:50.147Z,22.20
2023-05-14T03:19:18.392Z,21.15
2023-05-14T03:21:45.713Z,23.73
2023-05-14T03:24:12.882Z,23.23
2023-05-14T03:26:39.963Z,24.15
2023-05-14T03:29:07.894Z,22.02
2023-05-14T03:31:34.975Z,24.05
2023-05-14T03:34:02.203Z,22.30
2023-05-14T03:36:29.309Z,21.60
2023-05-14T03:38:56.490Z,22.10
2023-05-14T03:41:23.608Z,23.10
2023-05-14T03:43:50.645Z,22.35
2023-05-14T03:46:17.824Z,23.47
2023-05-14T03:48:45.043Z,22.45
2023-05-14T03:51:12.782Z,23.90
2023-05-14T03:53:39.859Z,23.80
2023-05-14T03:56:07.478Z,22.38
2023-05-14T03:58:34.572Z,20.30
2023-05-14T04:01:01.757Z,22.30
2023-05-14T04:03:29.144Z,20.98
2023-05-14T04:05:57.278Z,20.83
2023-05-14T04:08:24.343Z,21.40
2023-05-14T04:10:51.633Z,22.33
2023-05-14T04:13:18.793Z,20.80
2023-05-14T04:15:46.054Z,22.85
2023-05-14T04:18:14.029Z,21.85
2023-05-14T04:20:41.292Z,22.67
2023-05-14T04:23:08.509Z,20.87
2023-05-14T04:25:35.666Z,22.70
2023-05-14T04:28:02.876Z,21.00
2023-05-14T04:30:30.263Z,20.85
2023-05-14T04:32:57.488Z,20.70
2023-05-14T04:35:25.313Z,21.33
2023-05-14T04:37:52.524Z,20.63
2023-05-14T04:40:19.912Z,21.95
2023-05-14T04:42:47.015Z,20.95
2023-05-14T04:45:14.637Z,22.00
2023-05-14T04:47:42.126Z,21.90
2023-05-14T04:50:10.041Z,21.80
2023-05-14T04:52:38.396Z,22.42
2023-05-14T04:55:06.722Z,21.80
2023-05-14T04:57:34.058Z,21.88
2023-05-14T05:00:01.248Z,22.07
2023-05-14T05:02:28.420Z,20.85
2023-05-14T05:04:55.491Z,22.10
2023-05-14T05:07:22.625Z,22.00
2023-05-14T05:09:49.800Z,21.77
2023-05-14T05:12:16.933Z,21.37
2023-05-14T05:14:44.062Z,20.55
2023-05-14T05:17:11.158Z,20.15
2023-05-14T05:19:43.772Z,20.05
2023-05-14T05:22:11.789Z,23.10
2023-05-14T05:24:38.935Z,20.07
2023-05-14T05:27:06.258Z,21.98
2023-05-14T05:29:33.477Z,21.05
2023-05-14T05:32:00.973Z,21.23
2023-05-14T05:34:28.361Z,20.73
2023-05-14T05:36:55.524Z,20.60
2023-05-14T05:39:22.641Z,19.70
2023-05-14T05:41:49.758Z,21.17
2023-05-14T05:44:16.828Z,20.45
2023-05-14T05:46:43.971Z,19.02
2023-05-14T05:49:11.079Z,19.20
2023-05-14T05:51:38.198Z,18.98
2023-05-14T05:54:05.347Z,20.73
2023-05-14T05:56:32.539Z,20.25
2023-05-14T05:58:59.637Z,20.02
2023-05-14T06:01:26.930Z,19.83
2023-05-14T06:03:53.985Z,20.88
2023-05-14T06:06:21.819Z,21.17
2023-05-14T06:08:49.112Z,19.38
2023-05-14T06:11:17.062Z,20.55
2023-05-14T06:13:44.420Z,19.33
2023-05-14T06:16:11.615Z,19.02
2023-05-14T06:18:38.859Z,20.65
2023-05-14T06:21:08.236Z,19.33
2023-05-14T06:23:35.341Z,19.48
2023-05-14T06:26:02.438Z,19.17
2023-05-14T06:28:29.559Z,19.35
2023-05-14T06:30:56.620Z,19.83
2023-05-14T06:33:30.874Z,18.48
2023-05-14T06:36:04.387Z,18.35
2023-05-14T06:38:31.897Z,20.47
2023-05-14T06:40:59.001Z,18.83
2023-05-14T06:43:26.213Z,18.38
2023-05-14T06:45:54.174Z,18.13
2023-05-14T06:48:21.797Z,18.40
2023-05-14T06:50:49.880Z,17.97
2023-05-14T06:53:17.042Z,19.77
2023-05-14T06:55:44.229Z,18.67
2023-05-14T06:58:11.326Z,19.30
2023-05-14T07:00:38.432Z,19.02
2023-05-14T07:03:05.946Z,16.97
2023-05-14T07:05:33.145Z,17.98
2023-05-14T07:08:00.393Z,19.50
2023-05-14T07:10:27.477Z,18.13
2023-05-14T07:12:55.128Z,18.25
2023-05-14T07:15:22.200Z,17.87
2023-05-14T07:17:49.658Z,16.50
2023-05-14T07:20:16.767Z,16.60
2023-05-14T07:22:43.922Z,17.90
2023-05-14T07:25:11.040Z,16.88
2023-05-14T07:27:38.217Z,17.90
2023-05-14T07:30:06.295Z,16.90
2023-05-14T07:32:33.596Z,18.42
2023-05-14T07:35:01.415Z,17.70
2023-05-14T07:37:28.612Z,18.95
2023-05-14T07:39:56.161Z,17.63
2023-05-14T07:42:34.961Z,18.92
2023-05-14T07:45:04.612Z,19.05
2023-05-14T07:47:32.062Z,17.30
2023-05-14T07:49:59.631Z,18.05
2023-05-14T07:52:26.702Z,17.83
2023-05-14T07:54:53.896Z,15.70
2023-05-14T07:57:22.057Z,14.88
2023-05-14T07:59:49.565Z,17.00
2023-05-14T08:02:17.059Z,17.48
2023-05-14T08:04:44.907Z,18.07
2023-05-14T08:07:12.167Z,17.33
2023-05-14T08:09:39.370Z,17.73
2023-05-14T08:12:07.576Z,16.08
2023-05-14T08:14:34.772Z,17.65
2023-05-14T08:17:02.021Z,15.20
2023-05-14T08:19:29.096Z,18.45
2023-05-14T08:21:56.263Z,16.40
2023-05-14T08:24:23.421Z,17.45
2023-05-14T08:26:50.856Z,18.25
2023-05-14T08:29:18.093Z,18.13
2023-05-14T08:31:50.781Z,17.33
2023-05-14T08:34:18.850Z,16.20
2023-05-14T08:36:46.295Z,16.35
2023-05-14T08:39:13.854Z,17.35
2023-05-14T08:41:41.760Z,16.23
2023-05-14T08:44:26.845Z,15.57
2023-05-14T08:46:54.842Z,17.48
2023-05-14T08:49:43.015Z,14.30
2023-05-14T08:52:11.144Z,15.02
2023-05-14T08:54:39.195Z,15.23
2023-05-14T08:57:09.962Z,14.60
2023-05-14T08:59:37.840Z,16.45
2023-05-14T09:02:06.984Z,14.48
2023-05-14T09:04:35.142Z,15.15
2023-05-14T09:07:04.063Z,14.10
2023-05-14T09:09:31.700Z,14.07
2023-05-14T09:11:58.948Z,15.30
2023-05-14T09:14:26.313Z,14.93
2023-05-14T09:16:54.790Z,14.00
2023-05-14T09:19:22.351Z,13.20
2023-05-14T09:21:50.010Z,12.85
2023-05-14T09:24:22.525Z,13.30
2023-05-14T09:26:58.024Z,12.82
2023-05-14T09:29:26.325Z,13.15
2023-05-14T09:31:54.778Z,14.70
2023-05-14T09:34:31.349Z,13.70
2023-05-14T09:37:01.846Z,13.88
2023-05-14T09:39:29.841Z,13.55
2023-05-14T09:41:57.280Z,13.95
2023-05-14T09:44:25.215Z,13.80
2023-05-14T09:46:56.107Z,14.90
2023-05-14T09:49:23.381Z,14.70
2023-05-14T09:51:51.364Z,14.40
2023-05-14T09:54:18.703Z,14.25
2023-05-14T09:56:45.876Z,14.47
2023-05-14T09:59:13.292Z,13.30
2023-05-14T10:01:44.169Z,13.68
2023-05-14T10:04:11.911Z,14.30
2023-05-14T10:06:40.154Z,14.35
2023-05-14T10:09:19.688Z,13.37
2023-05-14T10:11:53.065Z,13.98
2023-05-14T10:14:57.241Z,13.50
2023-05-14T10:17:28.191Z,13.95
2023-05-14T10:19:59.090Z,13.10
2023-05-14T10:22:34.241Z,12.53
2023-05-14T10:25:04.008Z,12.88
2023-05-14T10:27:31.532Z,13.85
2023-05-14T10:29:58.753Z,13.10
2023-05-14T10:32:26.610Z,12.90
2023-05-14T10:34:54.190Z,12.80
2023-05-14T10:37:25.539Z,13.32
2023-05-14T10:40:02.462Z,13.45
2023-05-14T10:42:35.947Z,12.80
2023-05-14T10:45:08.246Z,14.13
2023-05-14T10:47:41.324Z,13.87
2023-05-14T10:50:15.054Z,13.20
2023-05-14T10:52:46.244Z,12.82
2023-05-14T10:55:16.170Z,13.82
2023-05-14T10:57:45.706Z,11.68
2023-05-14T11:00:14.719Z,11.87
2023-05-14T11:02:44.578Z,12.20
2023-05-14T11:05:17.669Z,12.27
2023-05-14T11:07:49.992Z,11.65
2023-05-14T11:10:20.122Z,12.50
2023-05-14T11:12:49.971Z,12.63
2023-05-14T11:15:21.011Z,11.70
2023-05-14T11:17:50.363Z,12.48
2023-05-14T11:20:18.481Z,12.50
2023-05-14T11:22:48.024Z,11.73
2023-05-14T11:25:15.969Z,12.20
2023-05-14T11:27:45.663Z,12.48
2023-05-14T11:30:18.733Z,13.00
2023-05-14T11:32:48.178Z,13.23
2023-05-14T11:35:15.797Z,12.15
2023-05-14T11:37:43.846Z,11.67
2023-05-14T11:40:17.014Z,12.38
2023-05-14T11:42:44.340Z,12.32
2023-05-14T11:45:13.467Z,12.63
2023-05-14T11:47:42.588Z,12.48
2023-05-14T11:50:11.168Z,12.17
2023-05-14T11:52:41.782Z,11.32
2023-05-14T11:55:13.161Z,11.82
2023-05-14T11:57:41.161Z,10.73
2023-05-14T12:00:14.522Z,11.68
2023-05-14T12:02:41.799Z,11.90
2023-05-14T12:05:12.966Z,11.52
2023-05-14T12:07:40.384Z,12.50
2023-05-14T12:10:08.377Z,12.15
2023-05-14T12:12:39.515Z,12.23
2023-05-14T12:15:14.638Z,12.57
2023-05-14T12:17:42.319Z,11.55
2023-05-14T12:20:11.541Z,13.50
2023-05-14T12:22:39.438Z,12.57
2023-05-14T12:25:15.333Z,11.82
2023-05-14T12:27:45.361Z,11.07
2023-05-14T12:30:21.265Z,11.73
2023-05-14T12:32:52.020Z,11.48
2023-05-14T12:35:21.327Z,10.90
2023-05-14T12:37:48.529Z,11.07
2023-05-14T12:40:15.585Z,10.50
2023-05-14T12:42:42.633Z,10.43
2023-05-14T12:45:10.584Z,10.35
2023-05-14T12:47:37.911Z,11.27
2023-05-14T12:50:06.270Z,10.27
2023-05-14T12:52:38.582Z,11.33
2023-05-14T12:55:10.284Z,10.13
2023-05-14T12:57:38.834Z,10.85
2023-05-14T13:00:08.570Z,11.80
2023-05-14T13:02:42.810Z,11.45
2023-05-14T13:05:11.734Z,10.73
2023-05-14T13:07:39.191Z,10.52
2023-05-14T13:10:07.171Z,10.93
2023-05-14T13:12:34.603Z,10.20
2023-05-14T13:15:01.746Z,11.60
2023-05-14T13:17:28.883Z,11.43
2023-05-14T13:19:56.082Z,10.95
2023-05-14T13:22:23.201Z,10.38
2023-05-14T13:24:50.331Z,9.23
2023-05-14T13:27:17.426Z,9.68
2023-05-14T13:29:44.618Z,10.73
2023-05-14T13:32:11.785Z,10.32
2023-05-14T13:34:38.837Z,9.57
2023-05-14T13:37:07.434Z,9.13
2023-05-14T13:39:34.624Z,9.98
2023-05-14T13:42:01.740Z,9.90
2023-05-14T13:44:29.471Z,9.93
2023-05-14T13:46:56.579Z,9.32
2023-05-14T13:49:23.735Z,9.82
2023-05-14T13:51:50.884Z,9.93
2023-05-14T13:54:18.875Z,9.97
2023-05-14T13:56:46.034Z,9.95
2023-05-14T13:59:13.248Z,9.80
2023-05-14T14:01:40.437Z,9.07
2023-05-14T14:04:07.541Z,9.82
2023-05-14T14:06:34.649Z,9.77
2023-05-14T14:09:01.861Z,10.00
2023-05-14T14:11:29.051Z,10.40
2023-05-14T14:13:56.146Z,10.10
2023-05-14T14:16:23.418Z,9.32
2023-05-14T14:18:50.815Z,9.23
2023-05-14T14:21:18.558Z,8.82
2023-05-14T14:23:49.096Z,9.15
2023-05-14T14:26:16.276Z,9.38
2023-05-14T14:28:43.333Z,9.00
2023-05-14T14:31:11.512Z,8.33
2023-05-14T14:33:38.796Z,9.05
2023-05-14T14:36:06.737Z,9.30
2023-05-14T14:38:33.816Z,8.68
2023-05-14T14:41:03.211Z,8.90
2023-05-14T14:43:30.488Z,7.47
2023-05-14T14:45:57.690Z,7.53
2023-05-14T14:48:39.106Z,7.25
2023-05-14T14:51:08.516Z,7.43
2023-05-14T14:53:37.025Z,8.18
2023-05-14T14:56:04.751Z,8.67
2023-05-14T14:58:32.591Z,8.30
2023-05-14T15:01:00.341Z,9.07
2023-05-14T15:03:27.477Z,7.88
2023-05-14T15:05:54.706Z,9.00
2023-05-14T15:08:27.430Z,8.17
2023-05-14T15:10:56.358Z,7.97
2023-05-14T15:13:24.546Z,7.53
2023-05-14T15:15:52.670Z,7.47
2023-05-14T15:18:20.180Z,7.45
2023-05-14T15:20:47.478Z,7.43
2023-05-14T15:23:14.577Z,7.43
2023-05-14T15:25:41.663Z,7.60
2023-05-14T15:28:08.983Z,7.72
2023-05-14T15:30:36.096Z,7.38
2023-05-14T15:33:06.297Z,7.03
2023-05-14T15:35:33.587Z,7.00
2023-05-14T15:38:00.706Z,7.80
2023-05-14T15:40:30.411Z,6.75
2023-05-14T15:42:57.679Z,7.35
2023-05-14T15:45:28.236Z,7.00
2023-05-14T15:48:05.228Z,6.25
2023-05-14T15:50:38.535Z,7.68
2023-05-14T15:53:13.285Z,6.80
2023-05-14T15:55:42.974Z,7.03
2023-05-14T15:58:11.458Z,7.17
2023-05-14T16:00:43.596Z,7.00
2023-05-14T16:03:13.638Z,8.73
2023-05-14T16:05:42.805Z,7.82
2023-05-14T16:08:25.491Z,8.23
2023-05-14T16:11:00.538Z,8.17
2023-05-14T16:13:28.145Z,8.48
2023-05-14T16:16:01.625Z,8.38
2023-05-14T16:18:31.661Z,8.45
2023-05-14T16:21:03.132Z,7.72
2023-05-14T16:23:35.533Z,8.17
2023-05-14T16:26:07.989Z,8.48
2023-05-14T16:28:47.535Z,7.82
2023-05-14T16:31:47.778Z,8.95
2023-05-14T16:34:18.765Z,8.70
2023-05-14T16:36:50.256Z,8.20
2023-05-14T16:39:29.002Z,7.85
2023-05-14T16:42:11.773Z,8.07
2023-05-14T16:44:42.278Z,7.60
2023-05-14T16:47:12.111Z,7.68
2023-05-14T16:49:44.811Z,8.03
2023-05-14T16:52:12.299Z,7.28
2023-05-14T16:54:48.628Z,8.30
2023-05-14T16:57:15.957Z,7.25
2023-05-14T16:59:43.142Z,7.68
2023-05-14T17:02:10.354Z,7.33
2023-05-14T17:04:40.876Z,8.48
2023-05-14T17:07:11.571Z,7.10
2023-05-14T17:09:38.645Z,7.60
2023-05-14T17:12:10.801Z,7.28
2023-05-14T17:14:43.401Z,6.27
2023-05-14T17:17:13.115Z,6.65
2023-05-14T17:19:50.762Z,7.32
2023-05-14T17:22:18.082Z,6.20
2023-05-14T17:24:45.364Z,7.35
2023-05-14T17:27:13.470Z,6.28
2023-05-14T17:29:41.973Z,6.63
2023-05-14T17:32:09.176Z,6.05
2023-05-14T17:34:36.224Z,5.97
2023-05-14T17:37:03.389Z,6.22
2023-05-14T17:39:30.528Z,6.45
2023-05-14T17:41:57.585Z,6.47
2023-05-14T17:44:24.783Z,6.25
2023-05-14T17:46:52.920Z,6.00
2023-05-14T17:49:20.051Z,6.53
2023-05-14T17:51:47.163Z,6.65
2023-05-14T17:54:14.252Z,6.40
2023-05-14T17:56:41.367Z,6.95
2023-05-14T17:59:08.514Z,6.13
2023-05-14T18:01:35.628Z,6.75
2023-05-14T18:04:02.817Z,6.50
2023-05-14T18:06:29.887Z,7.15
2023-05-14T18:08:57.015Z,7.65
2023-05-14T18:11:24.163Z,7.03
2023-05-14T18:13:51.312Z,7.20
2023-05-14T18:16:18.491Z,6.85
2023-05-14T18:18:45.681Z,7.50
2023-05-14T18:21:12.841Z,7.10
2023-05-14T18:23:39.918Z,7.20
2023-05-14T18:26:07.122Z,6.85
2023-05-14T18:28:34.334Z,6.97
2023-05-14T18:31:01.551Z,7.68
2023-05-14T18:33:29.407Z,6.95
2023-05-14T18:35:57.148Z,7.53
2023-05-14T18:38:24.264Z,6.80
2023-05-14T18:40:51.405Z,7.13
2023-05-14T18:43:19.916Z,7.35
2023-05-14T18:45:47.933Z,7.85
2023-05-14T18:48:16.406Z,7.17
2023-05-14T18:50:43.491Z,7.18
2023-05-14T18:53:10.663Z,7.55
2023-05-14T18:55:37.794Z,7.78
2023-05-14T18:58:05.010Z,7.10
2023-05-14T19:00:32.070Z,6.73
2023-05-14T19:02:59.272Z,7.72
2023-05-14T19:05:26.665Z,7.40
2023-05-14T19:07:53.923Z,6.80
2023-05-14T19:10:21.128Z,6.78
2023-05-14T19:12:48.329Z,7.00
2023-05-14T19:15:15.577Z,7.10
2023-05-14T19:17:42.862Z,8.30
2023-05-14T19:20:10.871Z,6.88
2023-05-14T19:22:38.078Z,7.53
2023-05-14T19:25:07.601Z,7.47
2023-05-14T19:27:37.938Z,7.18
2023-05-14T19:30:06.255Z,7.70
2023-05-14T19:32:33.351Z,7.25
2023-05-14T19:35:00.652Z,8.23
2023-05-14T19:37:27.752Z,7.63
2023-05-14T19:39:54.879Z,7.57
2023-05-14T19:42:22.068Z,7.80
2023-05-14T19:44:49.103Z,8.02
2023-05-14T19:47:16.243Z,8.05
2023-05-14T19:49:43.449Z,8.60
2023-05-14T19:52:11.475Z,8.52
2023-05-14T19:54:38.703Z,8.57
2023-05-14T19:57:06.214Z,9.27
2023-05-14T19:59:34.672Z,8.32
2023-05-14T20:02:02.440Z,8.70
2023-05-14T20:04:30.305Z,9.23
2023-05-14T20:06:58.204Z,9.27
2023-05-14T20:09:29.649Z,8.70
2023-05-14T20:11:57.410Z,9.07
2023-05-14T20:14:24.851Z,8.50
2023-05-14T20:16:53.128Z,8.95
2023-05-14T20:19:21.302Z,10.02
2023-05-14T20:21:49.206Z,8.93
2023-05-14T20:24:16.532Z,10.40
2023-05-14T20:26:43.906Z,8.67
2023-05-14T20:29:14.545Z,9.57
2023-05-14T20:31:42.181Z,9.48
2023-05-14T20:34:12.405Z,9.90
2023-05-14T20:36:39.592Z,10.02
2023-05-14T20:39:06.906Z,9.40
2023-05-14T20:41:34.106Z,10.10
2023-05-14T20:44:02.702Z,10.68
2023-05-14T20:46:30.472Z,9.65
2023-05-14T20:49:01.120Z,11.30
2023-05-14T20:51:28.867Z,10.30
2023-05-14T20:53:56.454Z,10.13
2023-05-14T20:56:23.690Z,9.75
2023-05-14T20:58:50.851Z,9.93
2023-05-14T21:01:19.303Z,10.38
2023-05-14T21:03:46.872Z,9.47
2023-05-14T21:06:14.278Z,10.00
2023-05-14T21:08:41.544Z,9.50
2023-05-14T21:11:08.714Z,10.13
2023-05-14T21:13:36.222Z,10.00
2023-05-14T21:16:03.598Z,10.73
2023-05-14T21:18:32.907Z,9.90
2023-05-14T21:21:00.243Z,11.38
2023-05-14T21:23:27.362Z,11.10
2023-05-14T21:25:55.021Z,10.75
2023-05-14T21:28:22.680Z,10.00
2023-05-14T21:30:51.234Z,12.73
2023-05-14T21:33:19.017Z,13.25
2023-05-14T21:35:46.137Z,13.15
2023-05-14T21:38:13.383Z,12.95
2023-05-14T21:40:40.542Z,12.80
2023-05-14T21:43:07.637Z,14.15
2023-05-14T21:45:35.874Z,14.15
2023-05-14T21:48:05.889Z,14.80
2023-05-14T21:50:33.159Z,13.63
2023-05-14T21:53:01.529Z,13.43
2023-05-14T21:55:29.119Z,16.40
2023-05-14T21:57:56.374Z,19.60
2023-05-14T22:00:24.095Z,18.17
2023-05-14T22:02:53.341Z,19.70
2023-05-14T22:05:21.245Z,19.90
2023-05-14T22:07:49.023Z,21.55
2023-05-14T22:10:16.651Z,21.02
2023-05-14T22:12:45.242Z,21.98
2023-05-14T22:15:12.911Z,22.77
2023-05-14T22:17:40.045Z,21.13
2023-05-14T22:20:07.762Z,22.08
2023-05-14T22:22:34.984Z,23.95
2023-05-14T22:25:03.388Z,23.25
2023-05-14T22:27:31.658Z,22.45
2023-05-14T22:29:59.170Z,23.40
2023-05-14T22:32:26.536Z,24.52
2023-05-14T22:34:53.627Z,24.25
2023-05-14T22:37:20.780Z,22.40
2023-05-14T22:39:47.903Z,23.27
2023-05-14T22:42:15.037Z,22.33
2023-05-14T22:44:42.136Z,22.77
2023-05-14T22:47:09.241Z,23.05
2023-05-14T22:49:36.352Z,23.08
2023-05-14T22:52:03.656Z,23.10
2023-05-14T22:54:30.824Z,21.50
2023-05-14T22:56:58.078Z,22.98
2023-05-14T22:59:25.197Z,21.15
2023-05-14T23:01:52.430Z,22.00
2023-05-14T23:04:19.568Z,25.17
2023-05-14T23:06:46.717Z,22.47
2023-05-14T23:09:13.765Z,22.85
2023-05-14T23:11:40.940Z,22.42
2023-05-14T23:14:08.102Z,23.83
2023-05-14T23:16:35.628Z,22.38
2023-05-14T23:19:03.111Z,22.53
2023-05-14T23:21:30.495Z,20.92
2023-05-14T23:23:57.563Z,23.75
2023-05-14T23:26:24.751Z,22.27
2023-05-14T23:28:53.862Z,23.23
2023-05-14T23:31:21.951Z,23.70
2023-05-14T23:33:49.020Z,21.35
2023-05-14T23:36:16.213Z,22.50
2023-05-14T23:38:43.623Z,22.10
2023-05-14T23:41:10.754Z,21.48
2023-05-14T23:43:37.932Z,21.70
2023-05-14T23:46:05.183Z,21.75
2023-05-14T23:48:32.758Z,20.92
2023-05-14T23:50:59.811Z,21.40
2023-05-14T23:53:26.991Z,20.40
2023-05-14T23:55:54.117Z,22.43
2023-05-14T23:58:21.273Z,22.48
